createdAt,value
2022-11-28T00:00:08.553Z,4.57
2022-11-28T00:02:41.944Z,4.57
2022-11-28T00:05:14.435Z,4.58
2022-11-28T00:07:43.355Z,4.58
2022-11-28T00:10:20.583Z,4.57
2022-11-28T00:12:50.803Z,4.55
2022-11-28T00:15:20.476Z,4.55
2022-11-28T00:17:50.957Z,4.56
2022-11-28T00:20:38.369Z,4.57
2022-11-28T00:23:07.179Z,4.57
2022-11-28T00:28:43.223Z,4.64
2022-11-28T00:31:23.184Z,4.64
2022-11-28T00:33:52.196Z,4.66
2022-11-28T00:36:24.350Z,4.68
2022-11-28T00:38:54.112Z,4.70
2022-11-28T00:41:27.313Z,4.69
2022-11-28T00:43:55.618Z,4.66
2022-11-28T00:46:24.464Z,4.66
2022-11-28T00:49:12.623Z,4.65
2022-11-28T00:51:40.718Z,4.68
2022-11-28T00:54:11.212Z,4.67
2022-11-28T00:56:45.794Z,4.67
2022-11-28T00:59:14.789Z,4.66
2022-11-28T01:02:04.019Z,4.68
2022-11-28T01:05:13.890Z,4.69
2022-11-28T01:08:01.832Z,4.68
2022-11-28T01:10:44.591Z,4.69
2022-11-28T01:13:26.719Z,4.71
2022-11-28T01:15:55.997Z,4.70
2022-11-28T01:18:23.922Z,4.72
2022-11-28T01:20:51.688Z,4.75
2022-11-28T01:23:20.085Z,4.72
2022-11-28T01:25:48.344Z,4.71
2022-11-28T01:28:16.113Z,4.71
2022-11-28T01:30:43.718Z,4.73
2022-11-28T01:33:11.643Z,4.73
2022-11-28T01:35:40.024Z,4.72
2022-11-28T01:38:09.051Z,4.73
2022-11-28T01:40:37.651Z,4.78
2022-11-28T01:43:10.342Z,4.79
2022-11-28T01:45:40.283Z,4.77
2022-11-28T01:48:09.366Z,4.74
2022-11-28T01:50:37.321Z,4.74
2022-11-28T01:53:07.406Z,4.74
2022-11-28T01:56:08.548Z,4.77
2022-11-28T01:58:40.173Z,4.74
2022-11-28T02:01:08.000Z,4.73
2022-11-28T02:03:46.494Z,4.72
2022-11-28T02:06:18.963Z,4.72
2022-11-28T02:08:46.979Z,4.73
2022-11-28T02:11:27.760Z,4.71
2022-11-28T02:14:29.869Z,4.71
2022-11-28T02:17:21.039Z,4.73
2022-11-28T02:20:00.638Z,4.76
2022-11-28T02:22:34.062Z,4.78
2022-11-28T02:25:18.826Z,4.81
2022-11-28T02:37:14.670Z,4.81
2022-11-28T02:49:53.014Z,4.80
2022-11-28T02:55:45.909Z,4.80
2022-11-28T02:58:24.305Z,4.79
2022-11-28T03:00:52.667Z,4.73
2022-11-28T03:03:57.831Z,4.72
2022-11-28T03:09:58.955Z,4.71
2022-11-28T03:12:36.642Z,4.72
2022-11-28T03:15:07.140Z,4.71
2022-11-28T03:17:56.280Z,4.71
2022-11-28T03:20:44.003Z,4.69
2022-11-28T03:23:17.603Z,4.68
2022-11-28T03:25:45.203Z,4.69
2022-11-28T03:28:29.845Z,4.68
2022-11-28T03:31:02.050Z,4.69
2022-11-28T03:33:41.245Z,4.70
2022-11-28T03:36:16.582Z,4.72
2022-11-28T03:38:49.619Z,4.73
2022-11-28T03:41:26.226Z,4.73
2022-11-28T03:43:56.929Z,4.78
2022-11-28T03:46:28.317Z,4.80
2022-11-28T03:48:59.255Z,4.83
2022-11-28T03:51:34.393Z,4.84
2022-11-28T03:54:25.344Z,4.86
2022-11-28T03:57:00.591Z,4.88
2022-11-28T03:59:37.375Z,4.89
2022-11-28T04:02:36.721Z,4.89
2022-11-28T04:05:24.444Z,4.90
2022-11-28T04:08:14.365Z,4.91
2022-11-28T04:11:03.248Z,4.91
2022-11-28T04:13:38.075Z,4.92
2022-11-28T04:16:11.795Z,4.91
2022-11-28T04:19:05.933Z,4.90
2022-11-28T04:21:55.870Z,4.87
2022-11-28T04:24:54.518Z,4.88
2022-11-28T04:27:44.597Z,4.87
2022-11-28T04:33:03.169Z,4.84
2022-11-28T04:35:53.165Z,4.83
2022-11-28T04:38:32.426Z,4.85
2022-11-28T04:41:19.341Z,4.88
2022-11-28T04:44:00.952Z,4.85
2022-11-28T04:46:38.041Z,4.83
2022-11-28T04:49:18.404Z,4.78
2022-11-28T04:52:05.921Z,4.79
2022-11-28T04:55:05.132Z,4.78
2022-11-28T04:57:50.644Z,4.72
2022-11-28T05:00:25.110Z,4.71
2022-11-28T05:03:03.750Z,4.69
2022-11-28T05:05:32.926Z,4.70
2022-11-28T05:11:03.270Z,4.70
2022-11-28T05:16:35.074Z,4.65
2022-11-28T05:29:35.243Z,4.68
2022-11-28T05:35:40.425Z,4.77
2022-11-28T05:59:31.990Z,4.67
2022-11-28T06:15:06.602Z,4.64
2022-11-28T06:17:36.957Z,4.56
2022-11-28T06:20:13.973Z,4.59
2022-11-28T06:36:43.363Z,4.46
2022-11-28T06:52:43.216Z,4.19
2022-11-28T06:55:10.629Z,4.15
2022-11-28T06:57:39.018Z,4.12
2022-11-28T07:00:07.356Z,4.12
2022-11-28T07:02:34.863Z,4.12
2022-11-28T07:05:07.774Z,4.16
2022-11-28T07:07:45.769Z,4.14
2022-11-28T07:10:22.062Z,4.14
2022-11-28T07:13:01.234Z,4.18
2022-11-28T07:15:31.941Z,4.17
2022-11-28T07:17:59.238Z,4.20
2022-11-28T07:20:26.525Z,4.19
2022-11-28T07:22:53.827Z,4.23
2022-11-28T07:25:21.999Z,4.24
2022-11-28T07:27:51.674Z,4.20
2022-11-28T07:30:20.340Z,4.16
2022-11-28T07:32:48.304Z,4.12
2022-11-28T07:35:15.769Z,4.13
2022-11-28T07:37:43.288Z,4.11
2022-11-28T07:40:10.877Z,4.17
2022-11-28T07:42:38.273Z,4.18
2022-11-28T07:45:06.828Z,4.21
2022-11-28T07:47:34.414Z,4.24
2022-11-28T07:50:04.232Z,4.25
2022-11-28T07:52:31.805Z,4.27
2022-11-28T07:54:59.329Z,4.25
2022-11-28T07:57:27.145Z,4.28
2022-11-28T07:59:54.581Z,4.26
2022-11-28T08:02:22.400Z,4.25
2022-11-28T08:04:53.972Z,4.25
2022-11-28T08:07:23.562Z,4.16
2022-11-28T08:09:51.245Z,4.15
2022-11-28T08:12:18.883Z,4.11
2022-11-28T08:14:46.790Z,4.10
2022-11-28T08:17:16.070Z,4.11
2022-11-28T08:19:43.569Z,4.10
2022-11-28T08:22:11.215Z,4.12
2022-11-28T08:24:41.091Z,4.12
2022-11-28T08:27:09.028Z,4.19
2022-11-28T08:29:36.602Z,4.22
2022-11-28T08:32:04.118Z,4.23
2022-11-28T08:34:31.719Z,4.18
2022-11-28T10:06:00.306Z,4.42
2022-11-28T10:08:45.471Z,4.42
2022-11-28T10:11:51.375Z,4.35
2022-11-28T10:14:58.441Z,4.26
2022-11-28T10:18:12.012Z,4.23
2022-11-28T10:20:57.200Z,4.24
2022-11-28T10:24:17.724Z,4.24
2022-11-28T10:27:00.932Z,4.21
2022-11-28T10:29:33.525Z,4.19
2022-11-28T10:32:03.050Z,4.25
2022-11-28T10:34:35.697Z,4.29
2022-11-28T10:37:25.555Z,4.33
2022-11-28T10:39:55.757Z,4.35
2022-11-28T10:45:41.958Z,4.32
2022-11-28T10:48:39.098Z,4.30
2022-11-28T10:52:03.934Z,4.25
2022-11-28T10:54:44.190Z,4.25
2022-11-28T10:57:29.805Z,4.24
2022-11-28T11:00:15.983Z,4.23
2022-11-28T11:02:48.529Z,4.25
2022-11-28T11:05:19.796Z,4.29
2022-11-28T11:07:52.783Z,4.30
2022-11-28T16:59:24.624Z,2.11
2022-11-28T17:01:57.313Z,2.13
2022-11-28T17:04:28.909Z,2.14
2022-11-28T17:07:01.948Z,2.12
2022-11-28T17:09:30.818Z,2.14
2022-11-28T17:12:06.284Z,2.09
2022-11-28T17:14:35.388Z,2.08
2022-11-28T17:17:10.875Z,2.09
2022-11-28T17:19:39.664Z,2.00
2022-11-28T17:22:08.416Z,2.03
2022-11-28T17:24:36.585Z,1.96
2022-11-28T17:27:08.018Z,1.94
2022-11-28T17:29:35.828Z,1.88
2022-11-28T17:32:06.662Z,1.87
2022-11-28T17:34:35.257Z,1.80
2022-11-28T17:37:05.338Z,1.77
2022-11-28T17:39:36.511Z,1.75
2022-11-28T17:42:07.865Z,1.75
2022-11-28T17:44:38.517Z,1.71
2022-11-28T17:47:07.456Z,1.72
2022-11-28T17:49:35.256Z,1.74
2022-11-28T17:52:06.381Z,1.75
2022-11-28T17:54:36.799Z,1.73
2022-11-28T17:57:09.215Z,1.73
2022-11-28T17:59:38.930Z,1.69
2022-11-28T18:02:07.049Z,1.71
2022-11-28T18:04:35.107Z,1.72
2022-11-28T18:07:03.184Z,1.75
2022-11-28T18:09:31.613Z,1.75
2022-11-28T18:12:07.162Z,1.76
2022-11-28T18:14:39.655Z,1.77
2022-11-28T18:17:07.789Z,1.79
2022-11-28T18:19:35.855Z,1.78
2022-11-28T18:22:03.926Z,1.77
2022-11-28T18:24:38.048Z,1.75
2022-11-28T18:27:06.694Z,1.75
2022-11-28T18:29:37.417Z,1.68
2022-11-28T18:32:15.179Z,1.68
2022-11-28T18:35:02.969Z,1.64
2022-11-28T18:37:30.869Z,1.62
2022-11-28T18:39:58.625Z,1.59
2022-11-28T18:42:26.784Z,1.59
2022-11-28T18:44:56.891Z,1.56
2022-11-28T18:47:26.329Z,1.56
2022-11-28T18:49:57.409Z,1.55
2022-11-28T18:52:43.521Z,1.50
2022-11-28T18:55:11.669Z,1.48
2022-11-28T18:57:41.385Z,1.53
2022-11-28T19:00:12.811Z,1.52
2022-11-28T19:02:43.672Z,1.53
2022-11-28T19:05:11.914Z,1.53
2022-11-28T19:07:44.507Z,1.53
2022-11-28T19:10:15.995Z,1.52
2022-11-28T19:12:45.967Z,1.54
2022-11-28T19:15:13.685Z,1.57
2022-11-28T19:17:41.258Z,1.57
2022-11-28T19:20:10.024Z,1.58
2022-11-28T19:22:40.650Z,1.56
2022-11-28T19:25:08.815Z,1.54
2022-11-28T19:27:36.587Z,1.55
2022-11-28T19:30:05.959Z,1.52
2022-11-28T19:32:33.468Z,1.53
2022-11-28T19:35:08.267Z,1.55
2022-11-28T19:37:38.988Z,1.56
2022-11-28T19:40:11.215Z,1.56
2022-11-28T19:42:40.521Z,1.57
2022-11-28T19:45:09.239Z,1.57
2022-11-28T19:47:37.143Z,1.54
2022-11-28T19:50:05.047Z,1.50
2022-11-28T19:52:32.555Z,1.45
2022-11-28T19:54:59.934Z,1.42
2022-11-28T19:57:27.666Z,1.42
2022-11-28T19:59:55.120Z,1.40
2022-11-28T20:02:23.574Z,1.39
2022-11-28T20:04:51.061Z,1.36
2022-11-28T20:07:18.334Z,1.32
2022-11-28T20:09:45.928Z,1.33
2022-11-28T20:12:13.468Z,1.32
2022-11-28T20:14:41.045Z,1.30
2022-11-28T20:17:10.888Z,1.32
2022-11-28T20:19:38.482Z,1.31
2022-11-28T20:22:05.684Z,1.31
2022-11-28T20:24:33.075Z,1.33
2022-11-28T20:27:00.443Z,1.33
2022-11-28T20:29:29.054Z,1.34
2022-11-28T20:31:57.496Z,1.33
2022-11-28T20:34:28.838Z,1.31
2022-11-28T20:36:58.404Z,1.33
2022-11-28T20:39:26.082Z,1.34
2022-11-28T20:41:53.569Z,1.32
2022-11-28T20:44:29.761Z,1.31
2022-11-28T20:46:57.352Z,1.32
2022-11-28T20:49:25.255Z,1.36
2022-11-28T20:51:52.842Z,1.31
2022-11-28T20:54:23.288Z,1.29
2022-11-28T20:59:42.871Z,1.25
2022-11-28T21:02:11.703Z,1.27
2022-11-28T21:04:39.018Z,1.27
2022-11-28T21:07:06.342Z,1.29
2022-11-28T21:09:34.293Z,1.33
2022-11-28T21:12:01.627Z,1.27
2022-11-28T21:14:29.392Z,1.27
2022-11-28T21:16:57.997Z,1.27
2022-11-28T21:19:25.558Z,1.28
2022-11-28T21:21:53.291Z,1.24
2022-11-28T21:24:20.886Z,1.23
2022-11-28T21:26:53.385Z,1.24
2022-11-28T21:29:21.668Z,1.27
2022-11-28T21:31:49.646Z,1.27
2022-11-28T21:34:17.778Z,1.25
2022-11-28T21:36:46.097Z,1.28
2022-11-28T21:39:15.669Z,1.26
2022-11-28T21:41:43.003Z,1.27
2022-11-28T21:44:10.556Z,1.30
2022-11-28T21:46:38.043Z,1.26
2022-11-28T21:49:05.764Z,1.30
2022-11-28T21:51:33.221Z,1.28
2022-11-28T21:54:02.090Z,1.25
2022-11-28T21:56:32.472Z,1.29
2022-11-28T21:59:01.818Z,1.26
2022-11-28T22:01:29.314Z,1.30
2022-11-28T22:04:02.421Z,1.31
2022-11-28T22:06:30.887Z,1.32
2022-11-28T22:08:58.785Z,1.34
2022-11-28T22:11:26.137Z,1.30
2022-11-28T22:13:53.597Z,1.27
2022-11-28T22:16:28.810Z,1.25
2022-11-28T22:18:58.613Z,1.28
2022-11-28T22:21:51.422Z,1.27
2022-11-28T22:24:16.479Z,1.28
2022-11-28T22:26:44.146Z,1.26
2022-11-28T22:29:11.878Z,1.27
2022-11-28T22:31:39.478Z,1.32
2022-11-28T22:34:06.835Z,1.32
2022-11-28T22:36:34.449Z,1.23
2022-11-28T22:39:02.840Z,1.23
2022-11-28T22:50:52.574Z,1.28
2022-11-28T22:56:32.250Z,1.22
2022-11-28T22:59:00.901Z,1.28
2022-11-28T23:07:57.462Z,1.23
2022-11-28T23:10:25.541Z,1.25
2022-11-28T23:12:54.116Z,1.23
2022-11-28T23:15:22.397Z,1.21
2022-11-28T23:17:50.235Z,1.16
2022-11-28T23:20:18.368Z,1.18
2022-11-28T23:22:46.187Z,1.19
2022-11-28T23:25:13.628Z,1.17
2022-11-28T23:27:41.255Z,1.22
2022-11-28T23:30:10.978Z,1.23
2022-11-28T23:32:41.903Z,1.21
2022-11-28T23:35:09.873Z,1.19
2022-11-28T23:37:40.018Z,1.21
2022-11-28T23:40:08.268Z,1.18
2022-11-28T23:42:37.505Z,1.16
2022-11-28T23:45:07.754Z,1.19
2022-11-28T23:47:35.699Z,1.21
2022-11-28T23:50:04.298Z,1.19
2022-11-28T23:52:32.140Z,1.20
2022-11-28T23:55:00.602Z,1.21
2022-11-28T23:57:34.855Z,1.17
